createdAt,value
2018-12-08T00:02:21.313Z,91.60
2018-12-08T00:04:48.904Z,91.70
2018-12-08T00:07:17.274Z,92.00
2018-12-08T00:09:44.858Z,92.00
2018-12-08T00:12:12.897Z,91.80
2018-12-08T00:14:40.471Z,91.80
2018-12-08T00:17:08.825Z,91.80
2018-12-08T00:19:36.430Z,91.80
2018-12-08T00:22:04.018Z,91.70
2018-12-08T00:24:31.694Z,91.90
2018-12-08T00:26:59.286Z,92.00
2018-12-08T00:29:26.865Z,92.00
2018-12-08T00:31:55.236Z,92.00
2018-12-08T00:34:23.580Z,92.00
2018-12-08T00:36:51.923Z,91.90
2018-12-08T00:39:19.496Z,92.00
2018-12-08T00:41:47.079Z,91.90
2018-12-08T00:44:14.680Z,91.70
2018-12-08T00:46:42.260Z,91.60
2018-12-08T00:49:10.699Z,91.70
2018-12-08T00:51:38.284Z,91.60
2018-12-08T00:54:08.365Z,91.50
2018-12-08T00:56:35.997Z,91.40
2018-12-08T00:59:04.307Z,91.40
2018-12-08T01:01:31.961Z,91.40
2018-12-08T01:03:59.549Z,91.40
2018-12-08T01:06:27.179Z,91.30
2018-12-08T01:08:55.060Z,91.40
2018-12-08T01:11:22.644Z,91.60
2018-12-08T01:13:50.622Z,91.20
2018-12-08T01:16:18.198Z,91.20
2018-12-08T01:18:45.797Z,91.50
2018-12-08T01:21:13.402Z,91.20
2018-12-08T01:23:40.974Z,91.00
2018-12-08T01:26:08.586Z,91.20
2018-12-08T01:28:36.165Z,91.40
2018-12-08T01:31:03.775Z,91.10
2018-12-08T01:33:31.382Z,91.10
2018-12-08T01:35:59.113Z,91.20
2018-12-08T01:38:27.498Z,91.40
2018-12-08T01:40:55.082Z,91.40
2018-12-08T01:43:22.665Z,91.40
2018-12-08T01:45:50.276Z,91.40
2018-12-08T01:48:17.849Z,91.40
2018-12-08T01:50:45.793Z,91.50
2018-12-08T01:53:13.369Z,91.60
2018-12-08T01:55:41.738Z,91.60
2018-12-08T01:58:09.336Z,91.60
2018-12-08T02:00:36.926Z,91.60
2018-12-08T02:03:04.539Z,91.60
2018-12-08T02:05:32.874Z,91.60
2018-12-08T02:08:00.448Z,91.60
2018-12-08T02:10:28.056Z,91.70
2018-12-08T02:12:55.627Z,91.80
2018-12-08T02:15:23.254Z,92.00
2018-12-08T02:17:50.861Z,91.70
2018-12-08T02:20:18.441Z,92.00
2018-12-08T02:22:46.064Z,91.80
2018-12-08T02:25:13.638Z,91.50
2018-12-08T02:27:41.300Z,91.70
2018-12-08T02:30:08.891Z,91.70
2018-12-08T02:32:36.489Z,91.90
2018-12-08T02:35:04.094Z,92.00
2018-12-08T02:37:31.667Z,92.10
2018-12-08T02:39:59.299Z,92.60
2018-12-08T02:42:26.879Z,92.40
2018-12-08T02:44:54.468Z,92.60
2018-12-08T02:47:22.080Z,92.60
2018-12-08T02:49:49.656Z,92.70
2018-12-08T02:52:17.262Z,92.70
2018-12-08T02:54:44.839Z,92.80
2018-12-08T02:57:13.508Z,93.00
2018-12-08T02:59:41.086Z,93.00
2018-12-08T03:02:09.434Z,92.60
2018-12-08T03:04:37.041Z,92.70
2018-12-08T03:07:05.384Z,92.80
2018-12-08T03:09:32.991Z,92.80
2018-12-08T03:12:00.569Z,92.90
2018-12-08T03:14:28.155Z,93.00
2018-12-08T03:16:55.773Z,92.80
2018-12-08T03:19:25.331Z,92.90
2018-12-08T03:21:51.740Z,92.80
2018-12-08T03:24:19.334Z,92.80
2018-12-08T03:26:46.912Z,92.80
2018-12-08T03:29:14.518Z,92.70
2018-12-08T03:31:42.102Z,92.80
2018-12-08T03:34:10.520Z,92.90
2018-12-08T03:36:38.458Z,92.90
2018-12-08T03:39:06.038Z,93.00
2018-12-08T03:41:33.657Z,92.90
2018-12-08T03:44:01.228Z,92.90
2018-12-08T03:46:28.857Z,93.00
2018-12-08T03:48:56.777Z,92.90
2018-12-08T03:51:24.367Z,92.80
2018-12-08T03:53:52.024Z,92.80
2018-12-08T03:56:19.596Z,92.70
2018-12-08T03:58:47.982Z,92.90
2018-12-08T04:01:16.337Z,92.40
2018-12-08T04:03:44.285Z,92.40
2018-12-08T04:06:11.904Z,92.40
2018-12-08T04:08:40.249Z,92.20
2018-12-08T04:11:07.840Z,92.10
2018-12-08T04:13:35.454Z,92.00
2018-12-08T04:16:03.038Z,92.00
2018-12-08T04:18:30.623Z,91.90
2018-12-08T04:20:58.221Z,91.90
2018-12-08T04:23:25.802Z,92.40
2018-12-08T04:25:53.383Z,91.90
2018-12-08T04:28:20.993Z,91.80
2018-12-08T04:30:48.588Z,91.80
2018-12-08T04:33:16.176Z,91.80
2018-12-08T04:35:44.172Z,91.80
2018-12-08T04:38:11.731Z,91.90
2018-12-08T04:40:40.086Z,92.20
2018-12-08T04:43:08.157Z,92.20
2018-12-08T04:45:35.748Z,92.00
2018-12-08T04:48:03.332Z,91.70
2018-12-08T04:50:31.420Z,91.70
2018-12-08T04:52:58.996Z,91.80
2018-12-08T04:55:26.585Z,91.90
2018-12-08T04:57:54.930Z,91.90
2018-12-08T05:00:22.519Z,92.00
2018-12-08T05:02:50.109Z,92.00
2018-12-08T05:05:18.259Z,92.20
2018-12-08T05:07:45.835Z,92.40
2018-12-08T05:10:14.194Z,92.00
2018-12-08T05:12:41.898Z,92.00
2018-12-08T05:15:09.372Z,92.10
2018-12-08T05:17:37.002Z,92.20
2018-12-08T05:20:05.352Z,91.90
2018-12-08T05:22:32.936Z,91.90
2018-12-08T05:25:01.310Z,91.90
2018-12-08T05:27:28.899Z,91.90
2018-12-08T05:29:57.245Z,91.90
2018-12-08T05:32:24.830Z,92.10
2018-12-08T05:34:53.172Z,92.30
2018-12-08T05:37:20.774Z,92.30
2018-12-08T05:39:48.689Z,92.30
2018-12-08T05:42:16.333Z,92.50
2018-12-08T05:44:43.929Z,92.30
2018-12-08T05:47:11.513Z,92.30
2018-12-08T05:49:39.118Z,92.30
2018-12-08T05:52:06.701Z,92.40
2018-12-08T05:54:34.808Z,92.50
2018-12-08T05:57:02.411Z,92.50
2018-12-08T05:59:29.989Z,92.70
2018-12-08T06:01:57.744Z,92.70
2018-12-08T06:04:25.324Z,92.80
2018-12-08T06:06:53.289Z,92.80
2018-12-08T06:09:20.872Z,92.90
2018-12-08T06:11:48.825Z,92.90
2018-12-08T06:14:16.427Z,93.00
2018-12-08T06:16:44.007Z,93.00
2018-12-08T06:19:12.431Z,93.00
2018-12-08T06:21:40.008Z,93.00
2018-12-08T06:24:07.589Z,93.00
2018-12-08T06:26:35.197Z,93.00
2018-12-08T06:29:02.774Z,93.00
2018-12-08T06:31:30.381Z,92.90
2018-12-08T06:33:58.725Z,92.80
2018-12-08T06:36:26.354Z,92.80
2018-12-08T06:38:53.940Z,92.80
2018-12-08T06:41:21.562Z,93.00
2018-12-08T06:43:49.174Z,93.00
2018-12-08T06:46:16.749Z,93.00
2018-12-08T06:48:44.328Z,93.00
2018-12-08T06:51:12.736Z,93.20
2018-12-08T06:53:40.336Z,93.10
2018-12-08T06:56:07.914Z,93.10
2018-12-08T06:58:35.575Z,93.20
2018-12-08T07:01:03.180Z,93.20
2018-12-08T07:03:30.764Z,93.30
2018-12-08T07:05:58.463Z,93.40
2018-12-08T07:08:26.038Z,93.40
2018-12-08T07:10:53.614Z,93.40
2018-12-08T07:13:22.017Z,93.50
2018-12-08T07:15:50.371Z,93.70
2018-12-08T07:18:17.962Z,93.50
2018-12-08T07:20:45.984Z,93.50
2018-12-08T07:23:13.565Z,93.70
2018-12-08T07:25:41.915Z,93.70
2018-12-08T07:28:09.522Z,93.60
2018-12-08T07:30:37.871Z,93.80
2018-12-08T07:33:05.918Z,93.80
2018-12-08T07:35:33.502Z,93.40
2018-12-08T07:38:01.080Z,93.20
2018-12-08T07:40:29.458Z,93.30
2018-12-08T07:42:57.040Z,93.00
2018-12-08T07:45:25.897Z,92.80
2018-12-08T07:47:53.494Z,92.80
2018-12-08T07:50:21.838Z,93.00
2018-12-08T07:52:50.642Z,93.00
2018-12-08T07:55:18.216Z,93.00
2018-12-08T07:57:46.559Z,93.20
2018-12-08T08:00:14.770Z,93.20
2018-12-08T08:02:43.121Z,93.30
2018-12-08T08:05:10.719Z,93.30
2018-12-08T08:07:39.109Z,93.70
2018-12-08T08:10:06.697Z,93.70
2018-12-08T08:12:34.272Z,93.40
2018-12-08T08:15:01.902Z,93.40
2018-12-08T08:17:29.490Z,93.40
2018-12-08T08:19:57.098Z,93.50
2018-12-08T08:22:25.499Z,93.60
2018-12-08T08:24:53.082Z,93.60
2018-12-08T08:27:20.661Z,93.70
2018-12-08T08:29:48.292Z,93.50
2018-12-08T08:32:15.878Z,93.40
2018-12-08T08:34:43.466Z,93.30
2018-12-08T08:37:11.850Z,93.30
2018-12-08T08:39:39.427Z,93.30
2018-12-08T08:42:07.771Z,93.50
2018-12-08T08:44:35.766Z,93.50
2018-12-08T08:47:03.351Z,93.30
2018-12-08T08:49:31.709Z,92.80
2018-12-08T08:51:59.339Z,92.80
2018-12-08T08:54:26.917Z,92.70
2018-12-08T08:56:54.496Z,92.60
2018-12-08T08:59:22.124Z,92.70
2018-12-08T09:01:49.705Z,92.80
2018-12-08T09:04:17.301Z,92.70
2018-12-08T09:06:45.737Z,92.80
2018-12-08T09:09:13.309Z,92.80
2018-12-08T09:11:40.887Z,92.80
2018-12-08T09:14:13.195Z,92.80
2018-12-08T09:16:36.115Z,92.70
2018-12-08T09:19:04.463Z,93.00
2018-12-08T09:21:32.088Z,92.80
2018-12-08T09:23:59.684Z,92.80
2018-12-08T09:26:27.831Z,93.20
2018-12-08T09:28:55.469Z,93.20
2018-12-08T09:31:23.811Z,92.70
2018-12-08T09:33:52.967Z,92.70
2018-12-08T09:36:19.822Z,93.00
2018-12-08T09:38:47.405Z,93.00
2018-12-08T09:41:14.981Z,92.70
2018-12-08T09:43:42.640Z,92.80
2018-12-08T09:46:10.259Z,92.90
2018-12-08T09:48:37.831Z,93.00
2018-12-08T09:51:05.457Z,92.90
2018-12-08T09:53:33.027Z,93.00
2018-12-08T09:56:00.601Z,92.80
2018-12-08T09:58:28.231Z,92.90
2018-12-08T10:00:55.805Z,92.80
2018-12-08T10:03:24.151Z,92.90
2018-12-08T10:05:51.775Z,92.90
2018-12-08T10:08:19.347Z,93.10
2018-12-08T10:10:46.924Z,93.20
2018-12-08T10:13:14.556Z,93.30
2018-12-08T10:15:42.131Z,93.40
2018-12-08T10:18:09.725Z,93.40
2018-12-08T10:20:37.811Z,93.40
2018-12-08T10:23:05.390Z,93.40
2018-12-08T10:25:33.747Z,93.40
2018-12-08T10:28:01.376Z,93.40
2018-12-08T10:30:28.964Z,93.00
2018-12-08T10:32:56.536Z,92.90
2018-12-08T10:35:24.810Z,92.90
2018-12-08T10:37:52.388Z,93.00
2018-12-08T10:40:20.319Z,93.10
2018-12-08T10:42:48.070Z,93.20
2018-12-08T10:45:15.995Z,93.30
2018-12-08T10:47:43.907Z,93.10
2018-12-08T10:50:12.491Z,93.40
2018-12-08T10:52:40.126Z,93.40
2018-12-08T10:55:08.560Z,92.80
2018-12-08T10:57:42.616Z,92.80
2018-12-08T11:00:11.264Z,93.20
2018-12-08T11:02:38.858Z,93.10
2018-12-08T11:05:07.741Z,93.90
2018-12-08T11:07:35.320Z,93.50
2018-12-08T11:10:02.906Z,93.40
2018-12-08T11:12:30.536Z,93.30
2018-12-08T11:15:00.851Z,93.70
2018-12-08T11:17:26.479Z,93.40
2018-12-08T11:19:54.254Z,93.40
2018-12-08T11:22:21.855Z,93.40
2018-12-08T11:24:49.478Z,93.40
2018-12-08T11:27:17.106Z,93.40
2018-12-08T11:29:44.692Z,93.50
2018-12-08T11:32:13.041Z,93.60
2018-12-08T11:34:41.120Z,93.60
2018-12-08T11:37:08.696Z,93.40
2018-12-08T11:39:36.284Z,93.50
2018-12-08T11:42:03.898Z,93.50
2018-12-08T11:44:31.480Z,93.50
2018-12-08T11:46:59.061Z,93.50
2018-12-08T11:49:26.976Z,93.60
2018-12-08T11:51:54.559Z,93.70
2018-12-08T11:54:22.142Z,93.70
2018-12-08T11:56:50.578Z,93.70
2018-12-08T11:59:18.120Z,93.70
2018-12-08T12:01:45.851Z,93.30
2018-12-08T12:04:14.238Z,93.40
2018-12-08T12:06:42.575Z,93.50
2018-12-08T12:09:10.740Z,93.50
2018-12-08T12:11:38.377Z,93.50
2018-12-08T12:14:05.947Z,93.30
2018-12-08T12:16:34.244Z,93.40
2018-12-08T12:19:02.318Z,93.40
2018-12-08T12:21:29.905Z,93.60
2018-12-08T12:23:57.486Z,93.60
2018-12-08T12:26:25.895Z,93.90
2018-12-08T12:28:53.472Z,93.80
2018-12-08T12:31:21.051Z,92.80
2018-12-08T12:33:48.728Z,92.80
2018-12-08T12:36:16.282Z,92.80
2018-12-08T12:38:43.876Z,92.90
2018-12-08T12:41:12.286Z,93.00
2018-12-08T12:43:39.868Z,93.20
2018-12-08T12:46:07.453Z,93.20
2018-12-08T12:48:35.103Z,93.20
2018-12-08T12:51:02.687Z,93.30
2018-12-08T12:53:30.285Z,93.50
2018-12-08T12:55:57.910Z,93.50
2018-12-08T12:58:25.485Z,93.30
2018-12-08T13:00:53.840Z,93.10
2018-12-08T13:03:21.458Z,93.00
2018-12-08T13:05:49.091Z,93.00
2018-12-08T13:08:17.735Z,93.40
2018-12-08T13:10:45.315Z,93.00
2018-12-08T13:13:13.014Z,92.60
2018-12-08T13:15:40.882Z,92.70
2018-12-08T13:18:15.037Z,93.00
2018-12-08T13:20:42.715Z,92.90
2018-12-08T13:23:10.652Z,93.00
2018-12-08T13:25:38.389Z,93.10
2018-12-08T13:28:06.547Z,93.10
2018-12-08T13:30:34.217Z,93.00
2018-12-08T13:33:01.723Z,93.10
2018-12-08T13:35:55.903Z,93.10
2018-12-08T13:38:23.522Z,93.10
2018-12-08T13:40:51.412Z,93.30
2018-12-08T13:43:19.766Z,93.20
2018-12-08T13:45:47.349Z,93.20
2018-12-08T13:48:14.986Z,93.20
2018-12-08T13:50:42.574Z,93.30
2018-12-08T13:53:11.134Z,93.40
2018-12-08T13:55:38.753Z,93.40
2018-12-08T13:58:06.335Z,93.40
2018-12-08T14:00:33.992Z,93.60
2018-12-08T14:03:01.546Z,93.00
2018-12-08T14:05:29.177Z,93.00
2018-12-08T14:07:56.772Z,93.00
2018-12-08T14:10:24.361Z,93.00
2018-12-08T14:12:51.965Z,93.00
2018-12-08T14:15:19.571Z,93.10
2018-12-08T14:17:48.602Z,93.20
2018-12-08T14:20:22.128Z,93.10
2018-12-08T14:22:49.707Z,93.00
2018-12-08T14:25:17.322Z,92.90
2018-12-08T14:28:03.040Z,93.00
2018-12-08T14:30:31.459Z,92.90
2018-12-08T14:32:59.054Z,93.00
2018-12-08T14:35:26.704Z,93.00
2018-12-08T14:37:54.732Z,93.00
2018-12-08T14:40:22.329Z,93.10
2018-12-08T14:42:50.001Z,93.20
2018-12-08T14:45:17.577Z,93.10
2018-12-08T14:47:45.159Z,93.10
2018-12-08T14:50:12.776Z,93.10
2018-12-08T14:52:40.351Z,93.20
2018-12-08T14:55:07.930Z,93.20
2018-12-08T14:57:36.322Z,93.40
2018-12-08T15:00:04.677Z,93.40
2018-12-08T15:02:32.246Z,93.40
2018-12-08T15:04:59.889Z,93.40
2018-12-08T15:07:27.463Z,93.50
2018-12-08T15:09:55.049Z,93.50
2018-12-08T15:12:23.217Z,93.50
2018-12-08T15:14:50.797Z,93.60
2018-12-08T15:17:18.431Z,93.60
2018-12-08T15:19:46.053Z,93.60
2018-12-08T15:22:13.645Z,93.50
2018-12-08T15:24:41.250Z,93.50
2018-12-08T15:27:08.876Z,93.50
2018-12-08T15:29:36.460Z,93.50
2018-12-08T15:32:05.296Z,93.70
2018-12-08T15:34:33.368Z,93.60
2018-12-08T15:37:00.991Z,93.70
2018-12-08T15:39:28.633Z,93.70
2018-12-08T15:41:56.216Z,93.70
2018-12-08T15:44:24.555Z,93.80
2018-12-08T15:46:52.223Z,93.80
2018-12-08T15:49:19.824Z,93.80
2018-12-08T15:51:47.421Z,93.80
2018-12-08T15:54:15.046Z,93.90
2018-12-08T15:56:42.635Z,93.90
2018-12-08T15:59:10.234Z,94.00
2018-12-08T16:01:37.886Z,94.00
2018-12-08T16:04:05.480Z,94.00
2018-12-08T16:06:33.890Z,94.10
2018-12-08T16:09:01.484Z,94.10
2018-12-08T16:11:29.311Z,94.10
2018-12-08T16:13:56.966Z,94.20
2018-12-08T16:16:25.328Z,94.30
2018-12-08T16:18:53.676Z,94.70
2018-12-08T16:21:21.314Z,94.30
2018-12-08T16:23:48.914Z,94.40
2018-12-08T16:26:16.504Z,94.80
2018-12-08T16:28:44.152Z,94.40
2018-12-08T16:31:11.730Z,94.10
2018-12-08T16:33:40.076Z,93.70
2018-12-08T16:36:07.717Z,93.70
2018-12-08T16:38:35.318Z,93.80
2018-12-08T16:41:02.892Z,94.00
2018-12-08T16:43:31.325Z,94.30
2018-12-08T16:45:58.874Z,94.30
2018-12-08T16:48:26.453Z,94.40
2018-12-08T16:50:54.085Z,94.60
2018-12-08T16:53:21.685Z,94.70
2018-12-08T16:55:49.261Z,94.70
2018-12-08T16:58:17.359Z,94.80
2018-12-08T17:00:45.705Z,94.90
2018-12-08T17:03:13.360Z,94.90
2018-12-08T17:05:40.968Z,95.00
2018-12-08T17:08:09.365Z,95.10
2018-12-08T17:10:36.982Z,95.10
2018-12-08T17:13:04.560Z,95.10
2018-12-08T17:15:32.903Z,95.40
2018-12-08T17:18:00.537Z,95.30
2018-12-08T17:20:28.124Z,95.10
2018-12-08T17:22:55.702Z,95.20
2018-12-08T17:25:23.331Z,94.80
2018-12-08T17:27:50.920Z,94.90
2018-12-08T17:30:18.504Z,94.90
2018-12-08T17:32:46.908Z,95.20
2018-12-08T17:35:14.491Z,95.10
2018-12-08T17:37:42.076Z,95.10
2018-12-08T17:40:09.743Z,95.20
2018-12-08T17:42:37.299Z,95.20
2018-12-08T17:45:04.885Z,95.30
2018-12-08T17:47:33.216Z,95.40
2018-12-08T17:50:00.810Z,95.50
2018-12-08T17:52:28.384Z,96.00
2018-12-08T17:54:57.449Z,95.70
2018-12-08T17:57:24.996Z,95.70
2018-12-08T17:59:52.580Z,95.70
2018-12-08T18:02:20.208Z,95.80
2018-12-08T18:04:47.882Z,95.90
2018-12-08T18:07:15.375Z,96.00
2018-12-08T18:09:42.981Z,96.10
2018-12-08T18:12:11.324Z,96.20
2018-12-08T18:14:38.957Z,96.20
2018-12-08T18:17:06.532Z,96.30
2018-12-08T18:19:34.118Z,96.50
2018-12-08T18:22:01.758Z,96.10
2018-12-08T18:24:29.351Z,96.10
2018-12-08T18:26:56.945Z,96.30
2018-12-08T18:29:24.572Z,96.00
2018-12-08T18:31:52.160Z,95.90
2018-12-08T18:34:20.506Z,96.00
2018-12-08T18:36:48.138Z,95.90
2018-12-08T18:39:15.718Z,96.10
2018-12-08T18:41:43.299Z,96.40
2018-12-08T18:44:11.341Z,96.10
2018-12-08T18:46:38.933Z,96.10
2018-12-08T18:49:06.515Z,95.80
2018-12-08T18:51:34.905Z,95.60
2018-12-08T18:54:02.486Z,95.60
2018-12-08T18:56:30.065Z,95.70
2018-12-08T18:58:57.696Z,95.80
2018-12-08T19:01:25.281Z,95.80
2018-12-08T19:03:52.858Z,95.90
2018-12-08T19:06:20.493Z,95.90
2018-12-08T19:08:48.066Z,96.10
2018-12-08T19:11:15.652Z,96.20
2018-12-08T19:13:43.707Z,96.30
2018-12-08T19:16:11.283Z,96.30
2018-12-08T19:18:39.374Z,96.40
2018-12-08T19:21:07.311Z,96.60
2018-12-08T19:23:34.888Z,96.70
2018-12-08T19:26:03.405Z,96.70
2018-12-08T19:28:31.762Z,96.90
2018-12-08T19:30:59.365Z,96.90
2018-12-08T19:33:26.988Z,96.70
2018-12-08T19:35:54.561Z,96.90
2018-12-08T19:38:22.150Z,96.60
2018-12-08T19:40:50.529Z,96.50
2018-12-08T19:43:18.098Z,96.40
2018-12-08T19:45:45.681Z,96.40
2018-12-08T19:48:13.283Z,96.50
2018-12-08T19:50:40.868Z,96.30
2018-12-08T19:53:09.625Z,96.40
2018-12-08T19:55:37.206Z,96.40
2018-12-08T19:58:05.571Z,96.60
2018-12-08T20:00:33.219Z,96.50
2018-12-08T20:03:00.823Z,96.70
2018-12-08T20:05:29.169Z,96.70
2018-12-08T20:07:56.798Z,96.70
2018-12-08T20:10:24.384Z,96.70
2018-12-08T20:12:51.963Z,97.10
2018-12-08T20:15:19.620Z,96.80
2018-12-08T20:17:47.250Z,96.80
2018-12-08T20:20:14.825Z,97.00
2018-12-08T20:22:42.473Z,96.70
2018-12-08T20:25:10.166Z,96.40
2018-12-08T20:27:37.749Z,96.30
2018-12-08T20:30:06.321Z,96.30
2018-12-08T20:32:33.918Z,96.60
2018-12-08T20:35:01.534Z,96.30
2018-12-08T20:37:29.167Z,96.30
2018-12-08T20:39:56.781Z,96.40
2018-12-08T20:42:24.379Z,96.50
2018-12-08T20:44:52.038Z,96.40
2018-12-08T20:47:19.618Z,96.20
2018-12-08T20:49:47.535Z,96.30
2018-12-08T20:52:15.116Z,96.30
2018-12-08T20:54:43.465Z,96.40
2018-12-08T20:57:11.656Z,96.40
2018-12-08T20:59:40.024Z,96.70
2018-12-08T21:02:07.609Z,96.70
2018-12-08T21:04:36.018Z,96.50
2018-12-08T21:07:03.664Z,96.40
2018-12-08T21:09:31.254Z,96.20
2018-12-08T21:11:58.923Z,96.10
2018-12-08T21:14:26.512Z,96.20
2018-12-08T21:16:54.169Z,96.30
2018-12-08T21:19:21.741Z,96.60
2018-12-08T21:21:50.746Z,96.30
2018-12-08T21:24:18.378Z,96.40
2018-12-08T21:26:45.961Z,96.20
2018-12-08T21:29:14.821Z,96.00
2018-12-08T21:31:42.028Z,96.00
2018-12-08T21:34:10.374Z,96.10
2018-12-08T21:36:38.019Z,96.10
2018-12-08T21:39:05.648Z,95.90
2018-12-08T21:41:33.237Z,95.90
2018-12-08T21:44:00.822Z,95.80
2018-12-08T21:46:29.011Z,95.70
2018-12-08T21:48:56.620Z,95.50
2018-12-08T21:51:24.210Z,95.60
2018-12-08T21:53:51.837Z,95.60
2018-12-08T21:56:19.426Z,95.70
2018-12-08T21:58:47.082Z,95.80
2018-12-08T22:01:14.670Z,95.80
2018-12-08T22:03:42.281Z,95.80
2018-12-08T22:06:10.569Z,95.70
2018-12-08T22:08:38.796Z,95.60
2018-12-08T22:11:06.402Z,95.60
2018-12-08T22:13:34.049Z,95.50
2018-12-08T22:16:02.403Z,95.00
2018-12-08T22:18:29.979Z,94.90
2018-12-08T22:20:58.386Z,95.00
2018-12-08T22:23:26.020Z,94.90
2018-12-08T22:25:54.377Z,94.50
2018-12-08T22:28:21.990Z,94.50
2018-12-08T22:30:49.575Z,94.40
2018-12-08T22:33:17.998Z,94.60
2018-12-08T22:35:45.585Z,94.90
2018-12-08T22:38:13.167Z,94.90
2018-12-08T22:40:40.797Z,93.90
2018-12-08T22:43:09.149Z,93.40
2018-12-08T22:45:36.751Z,93.40
2018-12-08T22:48:04.457Z,92.80
2018-12-08T22:50:32.044Z,93.00
2018-12-08T22:52:59.631Z,92.80
2018-12-08T22:55:28.034Z,92.50
2018-12-08T22:57:55.620Z,92.40
2018-12-08T23:00:31.921Z,92.30
2018-12-08T23:02:59.855Z,92.40
2018-12-08T23:05:27.526Z,92.50
2018-12-08T23:07:55.178Z,92.60
2018-12-08T23:10:22.765Z,92.70
2018-12-08T23:12:50.365Z,92.90
2018-12-08T23:15:18.729Z,92.40
2018-12-08T23:17:47.081Z,92.60
2018-12-08T23:20:14.716Z,92.60
2018-12-08T23:22:42.297Z,92.70
2018-12-08T23:25:09.885Z,92.70
2018-12-08T23:27:37.510Z,92.70
2018-12-08T23:30:05.085Z,92.80
2018-12-08T23:32:32.747Z,93.10
2018-12-08T23:35:00.325Z,93.30
2018-12-08T23:37:27.912Z,93.60
2018-12-08T23:39:56.286Z,93.20
2018-12-08T23:42:24.655Z,93.00
2018-12-08T23:44:52.306Z,93.00
2018-12-08T23:47:19.903Z,93.10
2018-12-08T23:49:48.473Z,93.20
2018-12-08T23:52:16.097Z,93.20
2018-12-08T23:54:43.677Z,93.40
2018-12-08T23:57:11.308Z,93.40
2018-12-08T23:59:38.899Z,93.40
